SZK weather

Skukuza Airport
Skukuza, Mpumalanga, South Africa

Public forecast

Using degrees Celsius for public forecast. Weather courtesy of forecast.io.

Closest aviation weather report (METAR) to Skukuza Airport

Closest report is Kruger Mpumalanga International Airport, 36.5 nm (67.6 km) SW. Retrieved 2019/10/21 13:00 UTC (35 minutes ago):

FAKN 211300Z AUTO 07010KT //// // ////// 33/16 Q1009

Closest aviation forecast (TAF) to Skukuza Airport

Forecast is more than 12 hours old.

Closest forecast is Kruger Mpumalanga International Airport, 36.5 nm (67.6 km) SW. Retrieved 2017/06/05 04:55 UTC (2 years ago):

TAF FAKN 050300Z 0504/0515 25006KT CAVOK BECMG 0511/0513 13005KT SCT030 BECMG 0513/0515 07005KT TX22/0513ZTN08/0504Z